Time;durP1;ratioP1;P1;durP2;ratioP2;P2;SDS_P1;SDS_P2;PMS_P1;PMS_P2;Temp;Humidity;BMP_temperature;BMP_pressure;BME280_temperature;BME280_humidity;BME280_pressure;Samples;Min_cycle;Max_cycle;Signal;HPM_P1;HPM_P2
2022/06/14 00:01:48;;;;;;;18.30;11.83;;;11.50;99.90;;;;;;4991822;28;20212;-67
2022/06/14 00:04:16;;;;;;;18.30;12.57;;;11.50;99.90;;;;;;4976583;28;20284;-67
2022/06/14 00:06:43;;;;;;;16.83;11.87;;;11.50;99.90;;;;;;4975543;28;20300;-67
2022/06/14 00:09:10;;;;;;;20.33;12.10;;;11.50;99.90;;;;;;4975144;28;20209;-67
2022/06/14 00:11:38;;;;;;;16.93;11.30;;;11.50;99.90;;;;;;4975081;28;20719;-67
2022/06/14 00:14:08;;;;;;;16.03;11.50;;;11.50;99.90;;;;;;4976586;28;20217;-66
2022/06/14 00:16:36;;;;;;;17.63;11.60;;;11.50;99.90;;;;;;4975366;28;20202;-67
2022/06/14 00:19:04;;;;;;;18.67;11.63;;;11.40;99.90;;;;;;4975274;28;20244;-67
2022/06/14 00:21:32;;;;;;;20.73;11.27;;;11.40;99.90;;;;;;4991590;28;20244;-64
2022/06/14 00:24:01;;;;;;;15.30;10.97;;;11.40;99.90;;;;;;4974960;28;20205;-67
2022/06/14 00:26:28;;;;;;;16.67;12.30;;;11.40;99.90;;;;;;4974902;28;20229;-67
2022/06/14 00:28:55;;;;;;;20.40;12.40;;;11.40;99.90;;;;;;4991503;28;20296;-67
2022/06/14 00:31:24;;;;;;;17.47;12.30;;;11.30;99.90;;;;;;4974973;28;20221;-67
2022/06/14 00:33:52;;;;;;;15.10;11.37;;;11.30;99.90;;;;;;4975089;28;20207;-66
2022/06/14 00:36:31;;;;;;;20.50;11.93;;;11.30;99.90;;;;;;4991208;28;20232;-67
2022/06/14 00:39:01;;;;;;;19.13;11.90;;;11.30;99.90;;;;;;4974882;28;20201;-67
2022/06/14 00:41:43;;;;;;;16.90;11.33;;;11.30;99.90;;;;;;4990969;28;20284;-67
2022/06/14 00:44:16;;;;;;;19.83;10.33;;;11.30;99.90;;;;;;4974923;28;20202;-64
2022/06/14 00:47:09;;;;;;;16.73;11.07;;;11.30;99.90;;;;;;4975857;28;20194;-66
2022/06/14 00:49:50;;;;;;;14.77;10.80;;;11.30;99.90;;;;;;4990841;28;20292;-67
2022/06/14 00:52:40;;;;;;;17.20;10.47;;;11.20;99.90;;;;;;4990913;28;20225;-67
2022/06/14 00:55:13;;;;;;;15.60;10.50;;;11.20;99.90;;;;;;4974416;28;20335;-66
2022/06/14 00:57:59;;;;;;;14.87;9.27;;;11.20;99.90;;;;;;4974242;28;20212;-67
2022/06/14 01:00:33;;;;;;;13.10;8.93;;;11.20;99.90;;;;;;4974461;28;20301;-66
2022/06/14 01:03:07;;;;;;;14.53;9.13;;;11.20;99.90;;;;;;4975723;28;20686;-66
2022/06/14 01:06:07;;;;;;;13.10;9.03;;;11.10;99.90;;;;;;4975901;28;20193;-67
2022/06/14 01:08:41;;;;;;;14.77;8.93;;;11.20;99.90;;;;;;4990294;28;20292;-67
2022/06/14 01:11:13;;;;;;;12.53;8.50;;;11.10;99.90;;;;;;4974267;28;20220;-67
2022/06/14 01:13:41;;;;;;;14.07;8.47;;;11.10;99.90;;;;;;4990383;28;20241;-67
2022/06/14 01:16:10;;;;;;;18.67;8.23;;;11.10;99.90;;;;;;4974121;28;20198;-67
2022/06/14 01:18:39;;;;;;;15.53;8.27;;;11.10;99.90;;;;;;4990393;28;20296;-67
2022/06/14 01:21:06;;;;;;;15.63;8.47;;;11.10;99.90;;;;;;4974815;28;20197;-67
2022/06/14 01:23:34;;;;;;;13.10;7.77;;;11.10;99.90;;;;;;4974210;28;20211;-67
2022/06/14 01:26:13;;;;;;;15.47;8.20;;;11.10;99.90;;;;;;4990017;28;20629;-67
2022/06/14 01:28:43;;;;;;;11.63;7.50;;;11.10;99.90;;;;;;4973992;28;20213;-66
2022/06/14 01:31:11;;;;;;;12.10;8.27;;;11.10;99.90;;;;;;4990047;28;20197;-67
2022/06/14 01:33:43;;;;;;;14.43;8.40;;;11.00;99.90;;;;;;4989897;28;20208;-66
2022/06/14 01:36:17;;;;;;;14.57;8.47;;;11.00;99.90;;;;;;4973579;28;20221;-67
2022/06/14 01:38:45;;;;;;;14.20;8.47;;;11.00;99.90;;;;;;4975033;28;20189;-66
2022/06/14 01:41:21;;;;;;;15.17;8.83;;;10.90;99.90;;;;;;4973908;28;20292;-66
2022/06/14 01:44:21;;;;;;;14.93;8.70;;;10.90;99.90;;;;;;4973486;28;20239;-67
2022/06/14 01:47:29;;;;;;;14.67;8.43;;;10.90;99.90;;;;;;4990107;28;20201;-67
2022/06/14 01:53:45;;;;;;;13.97;9.30;;;10.80;99.90;;;;;;4989946;28;20237;-67
2022/06/14 01:56:18;;;;;;;13.07;8.50;;;10.80;99.90;;;;;;4973587;28;20296;-65
2022/06/14 01:59:03;;;;;;;13.80;8.23;;;10.80;99.90;;;;;;4989721;28;20206;-65
2022/06/14 02:01:57;;;;;;;12.90;8.03;;;10.70;99.90;;;;;;4973358;28;20324;-64
2022/06/14 02:04:39;;;;;;;12.40;8.20;;;10.70;99.90;;;;;;4989199;28;20690;-64
2022/06/14 02:07:15;;;;;;;12.50;8.00;;;10.70;99.90;;;;;;4973298;28;20232;-64
2022/06/14 02:09:55;;;;;;;16.63;8.50;;;10.60;99.90;;;;;;4989511;28;20659;-65
2022/06/14 02:12:49;;;;;;;12.93;8.13;;;10.70;99.90;;;;;;4973093;28;20227;-64
2022/06/14 02:15:38;;;;;;;11.07;7.70;;;10.60;99.90;;;;;;4974281;28;20190;-65
2022/06/14 02:18:10;;;;;;;14.83;7.60;;;10.70;99.90;;;;;;4974378;28;20201;-65
2022/06/14 02:21:08;;;;;;;12.73;7.13;;;10.70;99.90;;;;;;4973186;28;20241;-66
2022/06/14 02:23:59;;;;;;;10.60;6.30;;;10.70;99.90;;;;;;4953026;29;20285;-65
2022/06/14 02:26:33;;;;;;;14.27;7.00;;;10.70;99.90;;;;;;4952757;29;20232;-65
2022/06/14 02:29:13;;;;;;;11.80;6.63;;;10.80;99.90;;;;;;4952799;29;20202;-65
2022/06/14 02:31:49;;;;;;;13.13;7.23;;;10.70;99.90;;;;;;4936656;29;20229;-65
2022/06/14 02:34:39;;;;;;;12.07;7.07;;;10.70;99.90;;;;;;4936819;29;20739;-65
2022/06/14 02:37:14;;;;;;;12.50;7.27;;;10.70;99.90;;;;;;4952692;28;20252;-65
2022/06/14 02:39:49;;;;;;;15.97;7.70;;;10.70;99.90;;;;;;4952717;29;20304;-65
2022/06/14 02:42:36;;;;;;;14.33;7.30;;;10.70;99.90;;;;;;4936688;29;20201;-64
2022/06/14 02:45:09;;;;;;;15.30;7.63;;;10.70;99.90;;;;;;4936681;29;20210;-65
2022/06/14 02:48:11;;;;;;;11.97;7.53;;;10.70;99.90;;;;;;4937313;29;20229;-66
2022/06/14 02:50:41;;;;;;;13.67;7.70;;;10.70;99.90;;;;;;4934115;29;20220;-65
2022/06/14 02:53:19;;;;;;;14.83;7.63;;;10.60;99.90;;;;;;4936689;29;20310;-64
2022/06/14 02:56:31;;;;;;;14.57;7.23;;;10.70;99.90;;;;;;4936395;29;20246;-65
2022/06/14 02:59:03;;;;;;;15.63;7.47;;;10.60;99.90;;;;;;4895875;29;20214;-64
2022/06/14 03:01:45;;;;;;;12.00;7.50;;;10.70;99.90;;;;;;4910912;29;20617;-65
2022/06/14 03:04:28;;;;;;;13.13;7.50;;;10.70;99.90;;;;;;4914242;29;20261;-65
2022/06/14 03:07:03;;;;;;;11.83;7.70;;;10.80;99.90;;;;;;4914611;29;20202;-65
2022/06/14 03:09:34;;;;;;;12.87;7.80;;;10.90;99.90;;;;;;4914578;29;20215;-65
2022/06/14 03:12:28;;;;;;;14.17;8.07;;;10.90;99.90;;;;;;4898394;29;20729;-65
2022/06/14 03:15:04;;;;;;;10.77;7.33;;;10.80;99.90;;;;;;4914460;29;20222;-65
2022/06/14 03:17:56;;;;;;;14.30;7.50;;;10.80;99.90;;;;;;4898533;29;20204;-66
2022/06/14 03:20:32;;;;;;;15.67;8.17;;;10.90;99.90;;;;;;4914245;29;20204;-65
2022/06/14 03:23:26;;;;;;;13.93;8.00;;;10.90;99.90;;;;;;4914511;29;20209;-65
2022/06/14 03:26:13;;;;;;;14.57;8.50;;;10.90;99.90;;;;;;4914001;29;20219;-66
2022/06/14 03:28:55;;;;;;;13.73;8.20;;;10.90;99.90;;;;;;4914377;29;20714;-65
2022/06/14 03:31:31;;;;;;;19.37;9.47;;;10.90;99.90;;;;;;4913943;29;20735;-66
2022/06/14 03:34:04;;;;;;;18.73;9.33;;;11.00;99.90;;;;;;4914118;29;20242;-65
2022/06/14 03:36:31;;;;;;;16.33;9.67;;;10.90;99.90;;;;;;4954340;28;20315;-65
2022/06/14 03:39:00;;;;;;;13.63;9.10;;;10.90;99.90;;;;;;4988668;28;20190;-65
2022/06/14 03:41:30;;;;;;;16.00;9.03;;;10.90;99.90;;;;;;4988767;28;20546;-65
2022/06/14 03:43:59;;;;;;;16.50;8.80;;;11.00;99.90;;;;;;4990775;28;20203;-66
2022/06/14 03:46:44;;;;;;;13.90;8.13;;;11.00;99.90;;;;;;4991943;28;20193;-65
2022/06/14 03:49:18;;;;;;;13.83;7.63;;;11.00;99.90;;;;;;4992640;28;20603;-65
2022/06/14 03:51:51;;;;;;;12.53;7.87;;;11.10;99.90;;;;;;4977478;28;20236;-65
2022/06/14 03:54:37;;;;;;;16.60;8.07;;;11.00;99.90;;;;;;4975488;28;20276;-66
2022/06/14 03:57:04;;;;;;;12.93;7.40;;;11.00;99.90;;;;;;4975568;28;20300;-65
2022/06/14 03:59:39;;;;;;;11.07;7.10;;;11.10;99.90;;;;;;4991955;28;20296;-65
2022/06/14 04:02:15;;;;;;;10.67;7.33;;;11.20;99.90;;;;;;4975650;28;20200;-66
2022/06/14 04:04:57;;;;;;;14.50;7.87;;;11.20;99.90;;;;;;4991473;28;20243;-66
2022/06/14 04:07:39;;;;;;;12.87;7.00;;;11.20;99.90;;;;;;4975625;28;20206;-65
2022/06/14 04:10:34;;;;;;;10.80;6.53;;;11.30;99.90;;;;;;4976726;28;20240;-65
2022/06/14 04:13:14;;;;;;;11.23;6.57;;;11.30;99.90;;;;;;4976476;28;20213;-66
2022/06/14 04:16:08;;;;;;;10.30;6.60;;;11.30;99.90;;;;;;4991318;28;20296;-66
2022/06/14 04:18:58;;;;;;;10.70;6.23;;;11.40;99.90;;;;;;4976583;28;20329;-66
2022/06/14 04:21:38;;;;;;;11.83;6.50;;;11.50;99.90;;;;;;4991441;28;20205;-65
2022/06/14 04:24:11;;;;;;;10.03;6.03;;;11.50;99.90;;;;;;4975072;28;20598;-66
2022/06/14 04:27:16;;;;;;;12.90;5.77;;;11.60;99.90;;;;;;4991537;28;20300;-66
2022/06/14 04:30:06;;;;;;;12.57;6.50;;;11.70;99.90;;;;;;4976273;28;20560;-64
2022/06/14 04:32:46;;;;;;;11.13;6.33;;;11.70;99.90;;;;;;4975249;28;20229;-65
2022/06/14 04:35:41;;;;;;;11.17;6.53;;;11.80;99.90;;;;;;4974784;28;20305;-65
2022/06/14 04:38:14;;;;;;;11.87;6.10;;;11.80;99.90;;;;;;4974879;28;20214;-65
2022/06/14 04:40:47;;;;;;;11.23;6.00;;;11.80;99.90;;;;;;4974725;28;20655;-65
2022/06/14 04:43:19;;;;;;;10.37;6.33;;;11.90;99.90;;;;;;4991543;28;20224;-65
2022/06/14 04:45:58;;;;;;;10.87;6.53;;;12.00;99.90;;;;;;4974711;28;20240;-65
2022/06/14 04:48:42;;;;;;;15.87;6.40;;;12.10;99.90;;;;;;4976002;28;20639;-65
2022/06/14 04:51:24;;;;;;;10.27;6.27;;;12.20;99.90;;;;;;4990924;28;20240;-65
2022/06/14 04:53:57;;;;;;;11.63;6.07;;;12.30;99.90;;;;;;4990187;28;20244;-65
2022/06/14 04:56:31;;;;;;;10.23;6.90;;;12.30;99.90;;;;;;4974233;28;20288;-65
2022/06/14 04:59:14;;;;;;;8.67;6.87;;;12.40;99.90;;;;;;4974742;28;20206;-65
2022/06/14 05:02:01;;;;;;;12.47;7.40;;;12.40;99.90;;;;;;4974213;28;20627;-65
2022/06/14 05:04:40;;;;;;;13.80;8.30;;;12.40;99.90;;;;;;4990238;28;20263;-65
2022/06/14 05:07:14;;;;;;;11.67;8.80;;;12.40;99.90;;;;;;4990548;28;20212;-65
2022/06/14 05:09:47;;;;;;;11.20;9.40;;;12.60;99.90;;;;;;4990338;28;20490;-65
2022/06/14 05:12:48;;;;;;;12.73;8.93;;;12.60;99.90;;;;;;4975130;28;20252;-65
2022/06/14 05:15:28;;;;;;;13.73;8.63;;;12.60;99.90;;;;;;4937593;29;20332;-66
2022/06/14 05:18:02;;;;;;;11.93;8.00;;;12.70;99.90;;;;;;4937871;29;20269;-66
2022/06/14 05:20:48;;;;;;;10.27;6.97;;;12.80;99.90;;;;;;4937950;29;20212;-66
2022/06/14 05:23:35;;;;;;;8.77;5.57;;;12.90;99.90;;;;;;4954290;29;20289;-66
2022/06/14 05:26:30;;;;;;;8.73;4.70;;;13.00;99.90;;;;;;4937655;29;20224;-66
2022/06/14 05:29:03;;;;;;;8.30;4.80;;;13.10;99.90;;;;;;4937618;29;20202;-66
2022/06/14 05:31:44;;;;;;;9.43;5.00;;;13.10;99.90;;;;;;4937495;29;20221;-66
2022/06/14 05:34:29;;;;;;;7.40;4.50;;;13.10;99.90;;;;;;4937349;29;20382;-66
2022/06/14 05:37:14;;;;;;;9.50;4.97;;;13.20;99.90;;;;;;4937394;29;20313;-66
2022/06/14 05:39:45;;;;;;;8.93;4.23;;;13.10;99.90;;;;;;4937155;29;20325;-67
2022/06/14 05:42:20;;;;;;;10.97;4.07;;;13.20;99.90;;;;;;4937397;29;20222;-66
2022/06/14 05:44:51;;;;;;;8.97;4.03;;;13.30;99.90;;;;;;4937280;29;20292;-66
2022/06/14 05:47:40;;;;;;;6.53;4.53;;;13.20;99.90;;;;;;4937318;29;20698;-67
2022/06/14 05:50:13;;;;;;;6.97;4.10;;;13.30;99.90;;;;;;4953291;29;20627;-67
2022/06/14 05:52:49;;;;;;;8.63;4.30;;;13.40;99.90;;;;;;4962559;28;20235;-66
2022/06/14 05:55:49;;;;;;;7.87;3.77;;;13.40;99.90;;;;;;4973535;28;20207;-66
2022/06/14 05:58:53;;;;;;;7.97;3.57;;;13.50;99.90;;;;;;4989693;28;20202;-66
2022/06/14 06:01:31;;;;;;;6.73;3.13;;;13.50;99.90;;;;;;4974389;28;20200;-66
2022/06/14 06:04:24;;;;;;;7.30;3.10;;;13.60;99.90;;;;;;4989425;28;20225;-66
2022/06/14 06:06:58;;;;;;;7.07;2.97;;;13.70;99.90;;;;;;4972565;28;20304;-66
2022/06/14 06:09:36;;;;;;;6.03;2.90;;;13.80;99.90;;;;;;4974225;28;20221;-67
2022/06/14 06:12:18;;;;;;;5.57;2.40;;;14.00;99.90;;;;;;4973166;28;20203;-66
2022/06/14 06:14:52;;;;;;;3.83;2.30;;;14.00;99.90;;;;;;4974148;28;20199;-67
2022/06/14 06:17:28;;;;;;;5.70;2.70;;;14.10;99.90;;;;;;4972775;28;20190;-66
2022/06/14 06:20:13;;;;;;;6.73;2.53;;;14.00;99.90;;;;;;4974080;28;20231;-67
2022/06/14 06:22:58;;;;;;;4.57;2.13;;;14.20;99.90;;;;;;4972495;28;20194;-67
2022/06/14 06:25:33;;;;;;;10.20;2.90;;;14.40;99.90;;;;;;4989277;28;20215;-68
2022/06/14 06:28:00;;;;;;;6.40;2.00;;;14.50;99.90;;;;;;4972829;28;20280;-67
2022/06/14 06:30:43;;;;;;;5.30;2.30;;;14.60;99.90;;;;;;4989097;28;20195;-66
2022/06/14 06:33:14;;;;;;;5.77;2.00;;;14.60;99.90;;;;;;4972694;28;20220;-67
2022/06/14 06:35:51;;;;;;;6.07;1.90;;;14.80;99.90;;;;;;4988143;28;20671;-68
2022/06/14 06:38:24;;;;;;;6.37;2.03;;;14.80;99.90;;;;;;4990262;28;20267;-68
2022/06/14 06:43:58;;;;;;;7.90;2.00;;;15.00;99.90;;;;;;4991850;28;20193;-68
2022/06/14 06:46:32;;;;;;;3.30;1.70;;;15.20;99.90;;;;;;4991894;28;20201;-66
2022/06/14 06:49:03;;;;;;;2.63;1.63;;;15.40;99.90;;;;;;4992079;28;20604;-64
2022/06/14 06:51:39;;;;;;;6.00;1.80;;;15.40;99.90;;;;;;4991558;28;20296;-67
2022/06/14 06:54:34;;;;;;;2.57;1.50;;;15.60;99.90;;;;;;4990195;28;20246;-66
2022/06/14 06:57:03;;;;;;;3.60;1.60;;;15.80;99.90;;;;;;4991676;28;20196;-68
2022/06/14 06:59:36;;;;;;;5.53;1.77;;;15.90;99.90;;;;;;4990252;28;20225;-63
2022/06/14 07:02:12;;;;;;;3.73;1.40;;;15.90;99.90;;;;;;4991722;28;20197;-65
2022/06/14 07:07:31;;;;;;;4.03;1.27;;;15.90;99.90;;;;;;4979329;28;20271;-65
2022/06/14 07:10:14;;;;;;;3.23;1.30;;;15.90;99.90;;;;;;4991892;28;20296;-64
2022/06/14 07:13:00;;;;;;;4.53;1.13;;;16.20;99.90;;;;;;4991555;28;20259;-65
2022/06/14 07:15:37;;;;;;;4.50;1.27;;;16.40;99.90;;;;;;4992947;28;20197;-64
2022/06/14 07:18:16;;;;;;;2.87;1.30;;;16.10;99.90;;;;;;4992760;28;20200;-66
2022/06/14 07:20:54;;;;;;;4.40;1.10;;;16.00;99.90;;;;;;4995378;28;20192;-66
2022/06/14 07:23:39;;;;;;;4.03;1.10;;;16.10;99.90;;;;;;4995219;28;20204;-67
2022/06/14 07:26:21;;;;;;;5.17;1.20;;;16.30;99.90;;;;;;4996733;28;20247;-66
2022/06/14 07:29:24;;;;;;;6.93;1.80;;;16.40;99.90;;;;;;4995961;28;20204;-66
2022/06/14 07:32:01;;;;;;;3.17;1.30;;;16.40;99.90;;;;;;4995596;28;20207;-67
2022/06/14 07:34:30;;;;;;;3.73;1.67;;;16.30;99.90;;;;;;4995419;28;20234;-67
2022/06/14 07:37:17;;;;;;;4.93;1.43;;;16.50;99.90;;;;;;4995054;28;20225;-67
2022/06/14 07:40:06;;;;;;;3.40;1.33;;;16.50;99.90;;;;;;4995357;28;20201;-67
2022/06/14 07:42:36;;;;;;;4.77;1.57;;;16.40;99.90;;;;;;4995236;28;20212;-67
2022/06/14 07:45:12;;;;;;;4.53;1.30;;;16.60;99.90;;;;;;4994877;28;20240;-66
2022/06/14 07:47:47;;;;;;;3.33;1.50;;;16.50;99.90;;;;;;4991623;28;20197;-67
2022/06/14 07:50:22;;;;;;;3.17;1.20;;;16.70;99.90;;;;;;4995019;28;20236;-66
2022/06/14 07:53:06;;;;;;;6.77;1.23;;;16.70;99.90;;;;;;4995026;28;20217;-68
2022/06/14 07:55:39;;;;;;;1.87;1.10;;;16.80;99.90;;;;;;4995145;28;20228;-66
2022/06/14 07:58:12;;;;;;;5.03;1.50;;;17.00;99.90;;;;;;4996340;28;20231;-67
2022/06/14 08:03:50;;;;;;;4.80;1.40;;;16.90;99.90;;;;;;4994783;28;20225;-67
2022/06/14 08:06:40;;;;;;;4.23;1.20;;;16.50;99.90;;;;;;4994627;28;20203;-67
2022/06/14 08:09:08;;;;;;;4.30;1.43;;;16.60;99.90;;;;;;4987682;28;20267;-67
2022/06/14 08:11:50;;;;;;;2.60;1.33;;;16.80;99.90;;;;;;4995102;28;20230;-66
2022/06/14 08:14:32;;;;;;;3.93;1.70;;;16.60;99.90;;;;;;4995632;28;20308;-67
2022/06/14 08:17:00;;;;;;;7.90;2.20;;;16.30;99.90;;;;;;4994556;28;20292;-67
2022/06/14 08:20:00;;;;;;;2.80;1.50;;;16.30;99.90;;;;;;4994500;28;20773;-67
2022/06/14 08:22:57;;;;;;;3.50;1.50;;;16.60;99.90;;;;;;4961269;28;20302;-67
2022/06/14 08:25:29;;;;;;;3.37;1.40;;;17.00;99.90;;;;;;4994114;28;20307;-67
2022/06/14 08:28:10;;;;;;;4.27;1.33;;;17.00;99.90;;;;;;4995109;28;20641;-67
2022/06/14 08:30:43;;;;;;;4.10;1.20;;;17.10;99.90;;;;;;4993857;28;20726;-67
2022/06/14 08:33:17;;;;;;;3.07;1.20;;;16.70;99.90;;;;;;4994190;28;20700;-67
2022/06/14 08:35:50;;;;;;;3.97;1.20;;;16.60;99.90;;;;;;4993458;28;20664;-67
2022/06/14 08:38:30;;;;;;;4.27;1.50;;;16.90;99.90;;;;;;4994421;28;20324;-67
2022/06/14 08:41:25;;;;;;;3.40;1.20;;;17.30;99.90;;;;;;4993760;28;20231;-67
2022/06/14 08:44:12;;;;;;;3.10;1.27;;;17.60;99.90;;;;;;4989567;28;20207;-66
2022/06/14 08:47:00;;;;;;;3.33;1.37;;;17.70;99.90;;;;;;4993731;28;20238;-66
2022/06/14 08:49:43;;;;;;;1.60;1.27;;;17.40;99.90;;;;;;4994050;28;20197;-67
2022/06/14 08:52:22;;;;;;;4.37;1.20;;;17.00;99.90;;;;;;4994405;28;20627;-67
2022/06/14 08:55:28;;;;;;;4.23;1.60;;;17.90;99.90;;;;;;4993923;28;20221;-67
2022/06/14 08:58:04;;;;;;;3.87;1.00;;;19.30;99.90;;;;;;4995256;28;20350;-67
2022/06/14 09:00:52;;;;;;;2.90;1.93;;;19.60;99.90;;;;;;4977814;28;20247;-67
2022/06/14 09:03:45;;;;;;;2.47;1.20;;;19.20;99.90;;;;;;4993569;28;20264;-67
2022/06/14 09:06:39;;;;;;;2.63;1.20;;;18.90;99.90;;;;;;4993671;28;20196;-66
2022/06/14 09:09:14;;;;;;;2.40;1.43;;;18.60;99.90;;;;;;4995025;28;20267;-67
2022/06/14 09:12:09;;;;;;;3.20;1.43;;;18.80;99.90;;;;;;4993599;28;20215;-66
2022/06/14 09:15:00;;;;;;;2.13;1.13;;;18.50;99.90;;;;;;4993337;28;20586;-66
2022/06/14 09:17:45;;;;;;;2.80;1.17;;;18.40;99.90;;;;;;4993623;28;20287;-66
2022/06/14 09:20:56;;;;;;;3.87;1.30;;;19.20;99.90;;;;;;4993787;28;20211;-66
2022/06/14 09:23:40;;;;;;;3.30;1.10;;;19.70;99.90;;;;;;4993554;28;20258;-67
2022/06/14 09:26:26;;;;;;;4.23;1.20;;;19.70;99.90;;;;;;4993263;28;20561;-67
2022/06/14 09:29:24;;;;;;;3.70;1.00;;;19.20;99.90;;;;;;4993661;28;20201;-67
2022/06/14 09:32:17;;;;;;;4.60;1.13;;;19.20;99.90;;;;;;4993421;28;20216;-66
2022/06/14 09:35:01;;;;;;;2.13;1.00;;;19.10;99.90;;;;;;4918481;29;20294;-66
2022/06/14 09:37:38;;;;;;;3.37;1.00;;;19.50;99.90;;;;;;4918379;29;20222;-67
2022/06/14 09:40:16;;;;;;;2.63;0.93;;;19.90;99.90;;;;;;4934100;29;20237;-67
2022/06/14 09:42:46;;;;;;;4.07;1.17;;;19.40;99.90;;;;;;4918413;29;20203;-66
2022/06/14 09:45:46;;;;;;;3.77;0.90;;;18.80;99.90;;;;;;4934149;29;20230;-67
2022/06/14 09:48:48;;;;;;;3.17;1.10;;;18.50;99.90;;;;;;4912195;29;20227;-64
2022/06/14 09:51:18;;;;;;;2.93;1.00;;;18.70;99.90;;;;;;4858762;29;20204;-65
2022/06/14 09:54:17;;;;;;;3.43;0.97;;;19.40;99.90;;;;;;4858639;29;20385;-66
2022/06/14 09:56:54;;;;;;;2.83;1.10;;;19.40;99.90;;;;;;4843027;29;20567;-65
2022/06/14 09:59:39;;;;;;;2.77;0.97;;;19.40;99.90;;;;;;4842349;29;20205;-64
2022/06/14 10:02:36;;;;;;;3.63;1.17;;;19.20;99.90;;;;;;4858405;29;20281;-65
2022/06/14 10:05:29;;;;;;;2.00;0.87;;;18.90;99.90;;;;;;4858502;29;20205;-65
2022/06/14 10:08:14;;;;;;;3.07;1.00;;;18.80;99.90;;;;;;4858430;29;20446;-65
2022/06/14 10:11:15;;;;;;;4.47;1.10;;;18.60;99.90;;;;;;4857867;29;20205;-66
2022/06/14 10:14:13;;;;;;;2.57;0.93;;;18.40;99.90;;;;;;4917066;29;20321;-64
2022/06/14 10:17:06;;;;;;;2.97;1.23;;;18.30;99.90;;;;;;4917378;29;20206;-65
2022/06/14 10:20:05;;;;;;;4.03;1.30;;;18.10;99.90;;;;;;4932830;29;20204;-65
2022/06/14 10:22:44;;;;;;;3.70;1.20;;;18.20;99.90;;;;;;4901784;29;20210;-65
2022/06/14 10:25:14;;;;;;;4.27;1.70;;;18.30;99.90;;;;;;4917384;29;20722;-66
2022/06/14 10:28:13;;;;;;;3.37;1.10;;;18.80;99.90;;;;;;4950237;28;20561;-67
2022/06/14 10:31:01;;;;;;;3.87;1.40;;;19.00;99.90;;;;;;4993021;28;20201;-65
2022/06/14 10:33:34;;;;;;;3.43;1.10;;;19.20;99.90;;;;;;4991774;28;20701;-64
2022/06/14 10:36:17;;;;;;;3.30;1.17;;;19.50;99.90;;;;;;4992302;28;20236;-66
2022/06/14 10:39:16;;;;;;;3.47;0.97;;;20.40;99.90;;;;;;4991664;28;20197;-68
2022/06/14 10:42:06;;;;;;;3.70;1.10;;;20.80;99.90;;;;;;4991958;28;20659;-67
2022/06/14 10:44:48;;;;;;;5.63;1.17;;;20.90;99.90;;;;;;4992027;28;20251;-66
2022/06/14 10:47:24;;;;;;;3.43;1.00;;;20.40;99.90;;;;;;4993344;28;20224;-65
2022/06/14 10:50:41;;;;;;;3.47;1.30;;;19.90;99.90;;;;;;4991114;28;20206;-65
2022/06/14 10:53:27;;;;;;;3.20;1.10;;;19.90;99.90;;;;;;4972516;28;20729;-66
2022/06/14 10:56:15;;;;;;;3.63;1.10;;;19.50;99.90;;;;;;4958919;28;20300;-66
2022/06/14 10:59:03;;;;;;;3.57;1.10;;;19.40;99.90;;;;;;4959348;28;20193;-65
2022/06/14 11:01:38;;;;;;;2.97;1.00;;;19.00;99.90;;;;;;4959328;28;20202;-66
2022/06/14 11:04:31;;;;;;;3.53;1.00;;;19.00;99.90;;;;;;4974843;28;20655;-66
2022/06/14 11:07:07;;;;;;;5.40;1.40;;;19.40;99.90;;;;;;4975401;28;20205;-67
2022/06/14 11:09:55;;;;;;;4.37;1.20;;;19.40;99.90;;;;;;4959034;28;20201;-66
2022/06/14 11:12:58;;;;;;;4.60;1.30;;;19.30;99.90;;;;;;4959189;28;20244;-66
2022/06/14 11:15:37;;;;;;;3.77;1.03;;;19.20;99.90;;;;;;4955368;29;20345;-66
2022/06/14 11:18:22;;;;;;;2.23;0.97;;;19.10;99.90;;;;;;4955676;29;20293;-67
2022/06/14 11:21:03;;;;;;;2.10;0.90;;;19.10;99.90;;;;;;4955961;28;20635;-65
2022/06/14 11:23:54;;;;;;;2.77;1.23;;;19.10;99.90;;;;;;4939789;29;20288;-64
2022/06/14 11:26:45;;;;;;;3.90;1.20;;;18.90;99.90;;;;;;4942031;28;20560;-66
2022/06/14 11:29:38;;;;;;;3.10;1.10;;;18.50;99.90;;;;;;4958827;28;20276;-67
2022/06/14 11:32:29;;;;;;;4.23;1.00;;;18.30;99.90;;;;;;4974471;28;20292;-65
2022/06/14 11:35:52;;;;;;;3.67;0.83;;;18.30;99.90;;;;;;4974869;28;20217;-67
2022/06/14 11:38:39;;;;;;;3.87;1.00;;;18.20;99.90;;;;;;4916817;29;20253;-69
2022/06/14 11:41:08;;;;;;;6.40;1.60;;;18.50;99.90;;;;;;4901337;29;20358;-66
2022/06/14 11:44:13;;;;;;;4.47;1.13;;;18.80;99.90;;;;;;4901084;29;20255;-66
2022/06/14 11:47:02;;;;;;;4.63;1.17;;;19.00;99.90;;;;;;4901642;29;20290;-67
2022/06/14 11:49:48;;;;;;;3.87;1.10;;;18.90;99.90;;;;;;4917189;29;20722;-65
2022/06/14 11:52:24;;;;;;;2.90;1.10;;;18.80;99.90;;;;;;4917416;29;20203;-66
2022/06/14 11:55:29;;;;;;;3.67;0.83;;;18.80;99.90;;;;;;4883100;29;20231;-65
2022/06/14 11:58:06;;;;;;;4.67;1.10;;;18.70;99.90;;;;;;4898346;29;20648;-65
2022/06/14 12:01:11;;;;;;;2.67;0.97;;;18.40;99.90;;;;;;4898427;29;20607;-67
2022/06/14 12:03:59;;;;;;;3.60;1.27;;;18.30;99.90;;;;;;4881225;29;20322;-66
2022/06/14 12:06:29;;;;;;;4.30;1.30;;;18.10;99.90;;;;;;4897901;29;20200;-67
2022/06/14 12:09:06;;;;;;;6.60;1.97;;;18.20;99.90;;;;;;4882056;29;20235;-67
2022/06/14 12:12:14;;;;;;;1.73;0.97;;;18.40;99.90;;;;;;4882088;29;20701;-65
2022/06/14 12:14:49;;;;;;;1.90;1.10;;;18.20;99.90;;;;;;4931379;28;20367;-66
2022/06/14 12:17:25;;;;;;;8.73;1.60;;;18.30;99.90;;;;;;4994199;28;20646;-66
2022/06/14 12:20:21;;;;;;;4.13;1.50;;;18.50;99.90;;;;;;4995676;28;20199;-66
2022/06/14 12:23:26;;;;;;;4.33;1.23;;;18.70;99.90;;;;;;4994838;28;20645;-66
2022/06/14 12:29:03;;;;;;;3.10;0.97;;;18.90;99.90;;;;;;4935466;29;20294;-66
2022/06/14 12:31:54;;;;;;;3.50;1.53;;;18.90;99.90;;;;;;4919087;29;20234;-66
2022/06/14 12:34:25;;;;;;;3.47;1.20;;;18.80;99.90;;;;;;4934795;29;20703;-65
2022/06/14 12:36:52;;;;;;;1.97;1.10;;;18.20;99.90;;;;;;4934979;29;20323;-65
2022/06/14 12:39:27;;;;;;;3.87;1.27;;;18.20;99.90;;;;;;4919112;29;20768;-64
2022/06/14 12:42:19;;;;;;;4.33;1.20;;;18.10;99.90;;;;;;4919016;29;20574;-65
2022/06/14 12:45:16;;;;;;;3.13;1.30;;;17.90;99.90;;;;;;4919307;29;20246;-66
2022/06/14 12:48:05;;;;;;;3.40;0.93;;;17.80;99.90;;;;;;4919329;29;20695;-65
2022/06/14 12:50:42;;;;;;;3.33;1.03;;;17.80;99.90;;;;;;4934698;29;20215;-65
2022/06/14 12:53:30;;;;;;;2.50;1.00;;;17.70;99.90;;;;;;4919399;29;20207;-67
2022/06/14 12:56:05;;;;;;;4.37;1.00;;;17.70;99.90;;;;;;4937951;29;20690;-64
2022/06/14 12:58:47;;;;;;;2.43;1.10;;;17.60;99.90;;;;;;4937530;29;20559;-68
2022/06/14 13:01:28;;;;;;;4.13;1.20;;;17.70;99.90;;;;;;4940702;28;20244;-65
2022/06/14 13:04:13;;;;;;;4.23;1.43;;;17.70;99.90;;;;;;4993309;28;20232;-67
2022/06/14 13:06:53;;;;;;;4.93;1.60;;;17.60;99.90;;;;;;5025998;28;20201;-66
2022/06/14 13:09:28;;;;;;;4.43;1.20;;;17.60;99.90;;;;;;4993168;28;20205;-67
2022/06/14 13:12:25;;;;;;;3.47;1.30;;;17.70;99.90;;;;;;4994814;28;20701;-64
2022/06/14 13:15:26;;;;;;;4.37;1.50;;;17.80;99.90;;;;;;4982793;28;20268;-65
2022/06/14 13:17:59;;;;;;;3.27;1.20;;;17.90;99.90;;;;;;4962984;28;20283;-67
2022/06/14 13:20:44;;;;;;;2.80;0.97;;;18.00;99.90;;;;;;4994530;28;20542;-65
2022/06/14 13:23:35;;;;;;;4.20;1.30;;;18.40;99.90;;;;;;4992908;28;20201;-66
2022/06/14 13:26:23;;;;;;;3.90;1.50;;;18.60;99.90;;;;;;4976947;28;20211;-66
2022/06/14 13:29:05;;;;;;;3.40;1.40;;;19.20;99.90;;;;;;4993106;28;20292;-66
2022/06/14 13:31:54;;;;;;;5.40;1.33;;;19.60;99.90;;;;;;4994295;28;20692;-66
2022/06/14 13:34:30;;;;;;;5.23;1.23;;;19.40;99.90;;;;;;4992582;28;20225;-66
2022/06/14 13:37:24;;;;;;;3.20;1.30;;;19.70;99.90;;;;;;4992995;28;20221;-66
2022/06/14 13:40:07;;;;;;;4.43;1.50;;;19.80;99.90;;;;;;4992780;28;20236;-67
2022/06/14 13:42:51;;;;;;;2.50;1.00;;;20.10;99.90;;;;;;4992877;28;20204;-65
2022/06/14 13:45:18;;;;;;;2.63;1.00;;;20.00;99.90;;;;;;4992472;28;20201;-65
2022/06/14 13:48:09;;;;;;;2.97;1.30;;;19.90;99.90;;;;;;4992550;28;20196;-64
2022/06/14 13:50:54;;;;;;;2.33;1.20;;;19.80;99.90;;;;;;4994266;28;20193;-65
2022/06/14 13:53:24;;;;;;;4.57;1.33;;;20.10;99.90;;;;;;4976030;28;20204;-66
2022/06/14 13:56:00;;;;;;;4.80;1.17;;;19.90;99.90;;;;;;4992843;28;20233;-65
2022/06/14 13:58:41;;;;;;;5.93;1.50;;;20.40;99.90;;;;;;4992680;28;20291;-65
2022/06/14 14:01:25;;;;;;;4.33;1.20;;;20.80;99.90;;;;;;4992779;28;20243;-67
2022/06/14 14:04:25;;;;;;;4.83;1.30;;;21.10;99.90;;;;;;4992425;28;20596;-65
2022/06/14 14:07:17;;;;;;;3.93;1.20;;;21.20;99.90;;;;;;4992292;28;20200;-65
2022/06/14 14:09:54;;;;;;;4.47;1.60;;;21.00;99.90;;;;;;4992260;28;20292;-66
2022/06/14 14:12:28;;;;;;;3.93;1.40;;;20.90;99.90;;;;;;4992053;28;20236;-66
2022/06/14 14:15:14;;;;;;;6.20;1.20;;;21.20;99.90;;;;;;4992047;28;20267;-64